createdAt,value
2023-02-13T00:00:17.797Z,0
2023-02-13T00:01:58.137Z,0
2023-02-13T00:03:38.490Z,0
2023-02-13T00:05:18.764Z,0
2023-02-13T00:06:59.175Z,0
2023-02-13T00:08:39.350Z,0
2023-02-13T00:10:19.637Z,0
2023-02-13T00:11:59.950Z,0
2023-02-13T00:13:40.321Z,0
2023-02-13T00:15:20.706Z,0
2023-02-13T00:17:01.190Z,0
2023-02-13T00:18:41.712Z,0
2023-02-13T00:20:22.099Z,0
2023-02-13T00:23:42.633Z,0
2023-02-13T00:25:22.952Z,0
2023-02-13T00:27:03.263Z,0
2023-02-13T00:28:43.624Z,0
2023-02-13T00:30:23.837Z,0
2023-02-13T00:32:04.263Z,0
2023-02-13T00:33:44.412Z,0
2023-02-13T00:35:24.732Z,0
2023-02-13T00:37:05.068Z,0
2023-02-13T00:38:45.325Z,0
2023-02-13T00:40:25.713Z,0
2023-02-13T00:42:05.954Z,0
2023-02-13T00:43:46.261Z,0
2023-02-13T00:45:26.560Z,0
2023-02-13T00:47:06.831Z,0
2023-02-13T00:48:47.175Z,0
2023-02-13T00:50:27.425Z,0
2023-02-13T00:52:07.727Z,0
2023-02-13T00:53:48.045Z,0
2023-02-13T00:55:28.320Z,0
2023-02-13T00:57:08.639Z,0
2023-02-13T00:58:48.910Z,0
2023-02-13T01:00:29.219Z,0
2023-02-13T01:02:09.532Z,0
2023-02-13T01:03:49.877Z,0
2023-02-13T01:05:30.195Z,0
2023-02-13T01:07:10.541Z,0
2023-02-13T01:08:50.828Z,0
2023-02-13T01:10:31.144Z,0
2023-02-13T01:12:11.482Z,0
2023-02-13T01:13:51.751Z,0
2023-02-13T01:15:32.243Z,0
2023-02-13T01:17:12.678Z,0
2023-02-13T01:18:53.057Z,0
2023-02-13T01:20:33.468Z,0
2023-02-13T01:22:13.955Z,0
2023-02-13T01:23:54.416Z,0
2023-02-13T01:25:34.741Z,0
2023-02-13T01:27:17.105Z,0
2023-02-13T01:28:55.428Z,0
2023-02-13T01:30:35.708Z,0
2023-02-13T01:32:16.147Z,0
2023-02-13T01:33:56.494Z,0
2023-02-13T01:35:36.910Z,0
2023-02-13T01:37:17.251Z,0
2023-02-13T01:38:57.557Z,0
2023-02-13T01:40:37.967Z,0
2023-02-13T01:42:18.410Z,0
2023-02-13T01:43:58.885Z,0
2023-02-13T01:45:39.309Z,0
2023-02-13T01:47:19.675Z,0
2023-02-13T01:49:00.111Z,0
2023-02-13T01:50:40.432Z,0
2023-02-13T01:52:20.894Z,0
2023-02-13T01:54:01.276Z,0
2023-02-13T01:55:41.642Z,0
2023-02-13T01:57:22.055Z,0
2023-02-13T01:59:02.365Z,0
2023-02-13T02:00:42.631Z,0
2023-02-13T02:02:23.115Z,0
2023-02-13T02:04:03.232Z,0
2023-02-13T02:05:43.556Z,0
2023-02-13T02:07:23.831Z,0
2023-02-13T02:09:04.130Z,0
2023-02-13T02:10:44.532Z,0
2023-02-13T02:12:25.040Z,0
2023-02-13T02:14:05.401Z,0
2023-02-13T02:15:45.977Z,0
2023-02-13T02:17:26.414Z,0
2023-02-13T02:19:06.721Z,0
2023-02-13T02:20:47.073Z,0
2023-02-13T02:22:27.354Z,0
2023-02-13T02:24:07.654Z,0
2023-02-13T02:25:47.978Z,0
2023-02-13T02:27:28.416Z,0
2023-02-13T02:29:08.826Z,0
2023-02-13T02:30:49.259Z,0
2023-02-13T02:32:29.428Z,0
2023-02-13T02:34:09.774Z,0
2023-02-13T02:35:50.072Z,0
2023-02-13T02:37:30.348Z,0
2023-02-13T02:39:10.636Z,0
2023-02-13T02:40:51.068Z,0
2023-02-13T02:42:31.455Z,0
2023-02-13T02:44:11.901Z,0
2023-02-13T02:45:52.270Z,0
2023-02-13T02:47:32.715Z,0
2023-02-13T02:49:13.139Z,0
2023-02-13T02:50:53.664Z,0
2023-02-13T02:52:34.003Z,0
2023-02-13T02:54:14.473Z,0
2023-02-13T02:55:54.646Z,0
2023-02-13T02:57:35.025Z,0
2023-02-13T02:59:15.432Z,0
2023-02-13T03:00:56.279Z,0
2023-02-13T03:02:36.199Z,0
2023-02-13T03:05:57.203Z,0
2023-02-13T03:07:37.518Z,0
2023-02-13T03:09:17.873Z,0
2023-02-13T03:10:58.593Z,0
2023-02-13T03:12:38.455Z,0
2023-02-13T03:14:18.748Z,0
2023-02-13T03:15:59.072Z,0
2023-02-13T03:17:39.321Z,0
2023-02-13T03:19:19.623Z,0
2023-02-13T03:21:00.251Z,0
2023-02-13T03:22:40.213Z,0
2023-02-13T03:24:20.525Z,0
2023-02-13T03:26:00.838Z,0
2023-02-13T03:27:41.246Z,0
2023-02-13T03:29:21.670Z,0
2023-02-13T03:31:01.994Z,0
2023-02-13T03:32:42.237Z,0
2023-02-13T03:34:22.585Z,0
2023-02-13T03:36:02.864Z,0
2023-02-13T03:37:43.276Z,0
2023-02-13T03:39:23.524Z,0
2023-02-13T03:41:03.998Z,0
2023-02-13T03:42:44.373Z,0
2023-02-13T03:44:24.853Z,0
2023-02-13T03:46:05.544Z,0
2023-02-13T03:47:45.739Z,0
2023-02-13T03:49:26.288Z,0
2023-02-13T03:51:06.692Z,0
2023-02-13T03:52:46.994Z,0
2023-02-13T03:54:27.358Z,0
2023-02-13T03:56:07.654Z,0
2023-02-13T03:57:48.000Z,0
2023-02-13T03:59:28.423Z,0
2023-02-13T04:01:08.900Z,0
2023-02-13T04:02:49.311Z,0
2023-02-13T04:04:29.780Z,0
2023-02-13T04:06:10.153Z,0
2023-02-13T04:07:50.487Z,0
2023-02-13T04:09:30.781Z,0
2023-02-13T04:11:11.160Z,0
2023-02-13T04:12:51.551Z,0
2023-02-13T04:14:31.878Z,0
2023-02-13T04:16:12.220Z,0
2023-02-13T04:17:52.519Z,0
2023-02-13T04:19:32.824Z,0
2023-02-13T04:21:13.115Z,0
2023-02-13T04:22:53.417Z,0
2023-02-13T04:24:33.717Z,0
2023-02-13T04:26:14.292Z,0
2023-02-13T04:26:14.305Z,0
2023-02-13T04:26:14.331Z,0
2023-02-13T04:27:54.347Z,0
2023-02-13T04:29:34.762Z,0
2023-02-13T04:31:15.277Z,0
2023-02-13T04:32:55.558Z,0
2023-02-13T04:34:35.981Z,0
2023-02-13T04:36:16.445Z,0
2023-02-13T04:37:56.850Z,0
2023-02-13T04:39:37.287Z,0
2023-02-13T04:41:17.680Z,0
2023-02-13T04:42:57.992Z,0
2023-02-13T04:44:38.274Z,0
2023-02-13T04:46:18.672Z,0
2023-02-13T04:47:58.880Z,0
2023-02-13T04:49:39.198Z,0
2023-02-13T04:51:19.571Z,0
2023-02-13T04:53:00.056Z,0
2023-02-13T04:54:40.437Z,0
2023-02-13T04:56:20.903Z,0
2023-02-13T04:58:01.357Z,0
2023-02-13T04:59:41.810Z,0
2023-02-13T05:01:22.226Z,0
2023-02-13T05:03:02.488Z,0
2023-02-13T05:04:42.893Z,0
2023-02-13T05:06:23.200Z,0
2023-02-13T05:08:03.463Z,0
2023-02-13T05:09:43.804Z,0
2023-02-13T05:11:24.124Z,0
2023-02-13T05:13:04.412Z,0
2023-02-13T05:14:44.773Z,0
2023-02-13T05:16:25.175Z,0
2023-02-13T05:18:05.613Z,0
2023-02-13T05:19:46.058Z,0
2023-02-13T05:21:26.507Z,0
2023-02-13T05:23:06.936Z,0
2023-02-13T05:24:47.488Z,0
2023-02-13T05:26:27.833Z,0
2023-02-13T05:28:08.333Z,0
2023-02-13T05:29:48.819Z,0
2023-02-13T05:31:29.494Z,0
2023-02-13T05:33:09.778Z,0
2023-02-13T05:34:50.205Z,0
2023-02-13T05:36:30.511Z,0
2023-02-13T05:38:10.812Z,0
2023-02-13T05:39:51.143Z,0
2023-02-13T05:41:31.410Z,0
2023-02-13T05:43:11.794Z,0
2023-02-13T05:44:52.150Z,0
2023-02-13T05:46:32.561Z,0
2023-02-13T05:48:12.920Z,0
2023-02-13T05:49:53.387Z,0
2023-02-13T05:51:33.865Z,0
2023-02-13T05:53:14.366Z,0
2023-02-13T05:54:54.855Z,0
2023-02-13T05:56:35.237Z,0
2023-02-13T05:58:15.530Z,0
2023-02-13T05:59:55.816Z,1
2023-02-13T06:01:36.103Z,0
2023-02-13T06:03:16.404Z,1
2023-02-13T06:04:56.701Z,1
2023-02-13T06:06:36.983Z,1
2023-02-13T06:08:17.324Z,1
2023-02-13T06:09:57.655Z,2
2023-02-13T06:11:37.937Z,2
2023-02-13T06:13:18.495Z,4
2023-02-13T06:14:58.906Z,6
2023-02-13T06:16:39.409Z,8
2023-02-13T06:18:19.823Z,10
2023-02-13T06:20:00.257Z,14
2023-02-13T06:21:40.641Z,18
2023-02-13T06:23:20.894Z,24
2023-02-13T06:25:01.247Z,31
2023-02-13T06:26:41.493Z,38
2023-02-13T06:28:21.914Z,47
2023-02-13T06:30:02.159Z,57
2023-02-13T06:31:42.679Z,66
2023-02-13T06:33:22.936Z,84
2023-02-13T06:35:05.510Z,108
2023-02-13T06:36:43.898Z,132
2023-02-13T06:38:24.396Z,148
2023-02-13T06:40:04.805Z,167
2023-02-13T06:41:45.211Z,193
2023-02-13T06:43:25.601Z,224
2023-02-13T06:45:06.029Z,260
2023-02-13T06:46:46.560Z,288
2023-02-13T06:48:26.941Z,319
2023-02-13T06:50:07.362Z,356
2023-02-13T06:51:47.834Z,391
2023-02-13T06:53:28.331Z,451
2023-02-13T06:55:08.712Z,500
2023-02-13T06:56:49.123Z,542
2023-02-13T06:58:29.538Z,580
2023-02-13T07:00:10.037Z,618
2023-02-13T07:01:50.494Z,642
2023-02-13T07:03:31.113Z,694
2023-02-13T07:05:11.540Z,748
2023-02-13T07:06:51.996Z,788
2023-02-13T07:08:32.298Z,825
2023-02-13T07:10:12.680Z,871
2023-02-13T07:11:53.115Z,895
2023-02-13T07:13:33.591Z,978
2023-02-13T07:15:13.855Z,1076
2023-02-13T07:16:54.141Z,1176
2023-02-13T07:18:34.437Z,1298
2023-02-13T07:20:14.734Z,1396
2023-02-13T07:21:55.285Z,1386
2023-02-13T07:23:35.747Z,1385
2023-02-13T07:25:16.185Z,1414
2023-02-13T07:26:56.701Z,1416
2023-02-13T07:28:37.264Z,1518
2023-02-13T07:30:17.704Z,1641
2023-02-13T07:31:58.257Z,1745
2023-02-13T07:33:38.700Z,1827
2023-02-13T07:35:18.999Z,1893
2023-02-13T07:36:59.339Z,1951
2023-02-13T07:38:47.089Z,2012
2023-02-13T07:40:27.535Z,2040
2023-02-13T07:42:08.028Z,2113
2023-02-13T07:43:48.527Z,2229
2023-02-13T07:45:28.852Z,2359
2023-02-13T07:47:09.380Z,2490
2023-02-13T07:48:49.736Z,2598
2023-02-13T07:50:30.136Z,2697
2023-02-13T07:52:10.629Z,2726
2023-02-13T07:53:51.216Z,2842
2023-02-13T07:55:31.638Z,3095
2023-02-13T07:57:12.163Z,3225
2023-02-13T07:58:52.689Z,3441
2023-02-13T08:00:33.140Z,3555
2023-02-13T08:02:13.629Z,3698
2023-02-13T08:03:54.169Z,3709
2023-02-13T08:05:34.829Z,3895
2023-02-13T08:07:15.367Z,4186
2023-02-13T08:08:55.866Z,4366
2023-02-13T08:10:36.347Z,4571
2023-02-13T08:12:16.849Z,4644
2023-02-13T08:13:57.341Z,4758
2023-02-13T08:15:37.902Z,4496
2023-02-13T08:17:18.330Z,4465
2023-02-13T08:18:58.805Z,4468
2023-02-13T08:20:39.465Z,4551
2023-02-13T08:22:19.497Z,4839
2023-02-13T08:23:59.744Z,4981
2023-02-13T08:25:40.068Z,4870
2023-02-13T08:27:20.363Z,4772
2023-02-13T08:29:00.655Z,5065
2023-02-13T08:30:40.984Z,5422
2023-02-13T08:32:21.365Z,5418
2023-02-13T08:34:01.781Z,5242
2023-02-13T08:35:42.268Z,5329
2023-02-13T08:37:22.716Z,5561
2023-02-13T08:39:03.054Z,5812
2023-02-13T08:40:43.429Z,5931
2023-02-13T08:42:23.926Z,5900
2023-02-13T08:44:04.450Z,6175
2023-02-13T08:45:45.119Z,6397
2023-02-13T08:47:25.515Z,6314
2023-02-13T08:49:05.996Z,6624
2023-02-13T08:50:46.488Z,6795
2023-02-13T08:52:26.938Z,6601
2023-02-13T08:54:07.427Z,6423
2023-02-13T08:55:47.866Z,6535
2023-02-13T08:57:28.253Z,6739
2023-02-13T08:59:08.631Z,6939
2023-02-13T09:00:49.076Z,7255
2023-02-13T09:02:29.605Z,7455
2023-02-13T09:04:09.947Z,7489
2023-02-13T09:05:50.430Z,7603
2023-02-13T09:07:30.779Z,7448
2023-02-13T09:09:11.107Z,7713
2023-02-13T09:10:51.477Z,8091
2023-02-13T09:12:31.782Z,7972
2023-02-13T09:14:12.322Z,7639
2023-02-13T09:15:52.753Z,7625
2023-02-13T09:17:33.223Z,7441
2023-02-13T09:19:13.739Z,7399
2023-02-13T09:20:54.290Z,7493
2023-02-13T09:22:34.693Z,7674
2023-02-13T09:24:15.251Z,7952
2023-02-13T09:25:56.157Z,8230
2023-02-13T09:27:36.311Z,8707
2023-02-13T09:29:16.708Z,8793
2023-02-13T09:30:57.320Z,8223
2023-02-13T09:32:37.687Z,7962
2023-02-13T09:34:18.165Z,7684
2023-02-13T09:35:58.926Z,7756
2023-02-13T09:37:39.025Z,8538
2023-02-13T09:39:19.550Z,9578
2023-02-13T09:41:00.051Z,9620
2023-02-13T09:42:40.492Z,9072
2023-02-13T09:44:21.020Z,8846
2023-02-13T09:46:01.803Z,9075
2023-02-13T09:47:41.941Z,9501
2023-02-13T09:49:22.574Z,10072
2023-02-13T09:51:02.874Z,10369
2023-02-13T09:52:43.398Z,9912
2023-02-13T09:54:23.833Z,9626
2023-02-13T09:56:04.401Z,9303
2023-02-13T09:57:44.806Z,9131
2023-02-13T09:59:25.313Z,9460
2023-02-13T10:01:05.897Z,10119
2023-02-13T10:02:46.292Z,10526
2023-02-13T10:04:26.776Z,11012
2023-02-13T10:06:07.254Z,11330
2023-02-13T10:07:47.728Z,11838
2023-02-13T10:09:28.149Z,11526
2023-02-13T10:11:08.714Z,10868
2023-02-13T10:12:49.215Z,10382
2023-02-13T10:14:32.339Z,10413
2023-02-13T10:16:10.255Z,10836
2023-02-13T10:17:50.716Z,10939
2023-02-13T10:19:31.138Z,10561
2023-02-13T10:21:11.723Z,10451
2023-02-13T10:22:52.332Z,10847
2023-02-13T10:24:32.758Z,11580
2023-02-13T10:26:13.172Z,11529
2023-02-13T10:27:53.677Z,11203
2023-02-13T10:29:34.110Z,10492
2023-02-13T10:31:14.862Z,10207
2023-02-13T10:33:01.843Z,10447
2023-02-13T10:34:42.272Z,11041
2023-02-13T10:36:22.841Z,11547
2023-02-13T10:38:03.206Z,11666
2023-02-13T10:39:43.792Z,11943
2023-02-13T10:41:24.248Z,12074
2023-02-13T10:43:04.705Z,12201
2023-02-13T10:44:45.172Z,11921
2023-02-13T10:46:25.670Z,11744
2023-02-13T10:48:05.963Z,11972
2023-02-13T10:49:46.470Z,12634
2023-02-13T10:51:26.985Z,13108
2023-02-13T10:53:07.272Z,13028
2023-02-13T10:54:47.607Z,12781
2023-02-13T10:56:27.984Z,12356
2023-02-13T10:58:08.369Z,12024
2023-02-13T10:59:48.878Z,11825
2023-02-13T11:01:29.382Z,11604
2023-02-13T11:03:09.889Z,11388
2023-02-13T11:04:50.351Z,11164
2023-02-13T11:06:30.809Z,11206
2023-02-13T11:08:11.270Z,11506
2023-02-13T11:09:51.780Z,12000
2023-02-13T11:11:32.213Z,11933
2023-02-13T11:13:12.713Z,11696
2023-02-13T11:14:53.175Z,11944
2023-02-13T11:16:33.789Z,12504
2023-02-13T11:18:14.199Z,13220
2023-02-13T11:19:54.665Z,13643
2023-02-13T11:21:35.109Z,13769
2023-02-13T11:23:15.556Z,13616
2023-02-13T11:24:56.077Z,13889
2023-02-13T11:26:36.531Z,14591
2023-02-13T11:28:17.037Z,14976
2023-02-13T11:29:57.480Z,14855
2023-02-13T11:31:38.043Z,14831
2023-02-13T11:33:18.325Z,14974
2023-02-13T11:34:58.761Z,15149
2023-02-13T11:36:39.327Z,15154
2023-02-13T11:38:19.816Z,15409
2023-02-13T11:40:00.235Z,15188
2023-02-13T11:41:40.622Z,14782
2023-02-13T11:43:21.258Z,14745
2023-02-13T11:45:01.681Z,14417
2023-02-13T11:46:42.389Z,14443
2023-02-13T11:48:22.636Z,14894
2023-02-13T11:50:03.007Z,15544
2023-02-13T11:51:43.438Z,16454
2023-02-13T11:53:23.867Z,17360
2023-02-13T11:55:05.485Z,17504
2023-02-13T11:57:03.068Z,17416
2023-02-13T11:58:25.467Z,17832
2023-02-13T12:00:05.866Z,18736
2023-02-13T12:01:46.379Z,19216
2023-02-13T12:03:27.035Z,19456
2023-02-13T12:05:07.457Z,19392
2023-02-13T12:06:47.828Z,19112
2023-02-13T12:08:28.358Z,18832
2023-02-13T12:10:08.863Z,18296
2023-02-13T12:11:49.337Z,18056
2023-02-13T12:13:29.830Z,18152
2023-02-13T12:15:10.364Z,18952
2023-02-13T12:16:50.980Z,19440
2023-02-13T12:18:31.349Z,19128
2023-02-13T12:20:11.804Z,19216
2023-02-13T12:21:51.960Z,20264
2023-02-13T12:23:32.259Z,21416
2023-02-13T12:25:12.659Z,21840
2023-02-13T12:26:52.953Z,23208
2023-02-13T12:28:33.347Z,26272
2023-02-13T12:30:13.771Z,27536
2023-02-13T12:31:54.035Z,27968
2023-02-13T12:33:34.512Z,28464
2023-02-13T12:35:14.985Z,25880
2023-02-13T12:36:55.658Z,27056
2023-02-13T12:38:36.116Z,28480
2023-02-13T12:40:16.630Z,29752
2023-02-13T12:41:57.220Z,27264
2023-02-13T12:43:37.657Z,24512
2023-02-13T12:45:18.206Z,23864
2023-02-13T12:46:58.555Z,23096
2023-02-13T12:48:39.043Z,21640
2023-02-13T12:50:19.551Z,22792
2023-02-13T12:51:59.994Z,22336
2023-02-13T12:53:40.597Z,20040
2023-02-13T12:55:21.021Z,19040
2023-02-13T12:57:01.531Z,18088
2023-02-13T12:58:41.955Z,18408
2023-02-13T13:00:22.436Z,18624
2023-02-13T13:02:02.962Z,18928
2023-02-13T13:03:43.346Z,38608
2023-02-13T13:05:23.823Z,28128
2023-02-13T13:07:04.144Z,21440
2023-02-13T13:08:44.661Z,41312
2023-02-13T13:10:25.044Z,38248
2023-02-13T13:12:05.522Z,36896
2023-02-13T13:13:45.900Z,28528
2023-02-13T13:15:26.421Z,28904
2023-02-13T13:17:06.953Z,25360
2023-02-13T13:18:47.410Z,49488
2023-02-13T13:20:27.868Z,39880
2023-02-13T13:22:08.349Z,34176
2023-02-13T13:23:48.745Z,41168
2023-02-13T13:25:29.412Z,36928
2023-02-13T13:27:09.726Z,31144
2023-02-13T13:28:50.119Z,39512
2023-02-13T13:30:30.721Z,39456
2023-02-13T13:32:11.116Z,30688
2023-02-13T13:33:51.475Z,27032
2023-02-13T13:35:31.948Z,22824
2023-02-13T13:37:12.494Z,25352
2023-02-13T13:38:53.029Z,27352
2023-02-13T13:40:33.452Z,28904
2023-02-13T13:42:13.925Z,28888
2023-02-13T13:43:54.484Z,21384
2023-02-13T13:45:35.014Z,29272
2023-02-13T13:47:15.333Z,36360
2023-02-13T13:48:55.763Z,26712
2023-02-13T13:50:36.308Z,26552
2023-02-13T13:52:16.718Z,34888
2023-02-13T13:53:57.215Z,26144
2023-02-13T13:55:37.730Z,20560
2023-02-13T13:57:18.201Z,33632
2023-02-13T13:58:58.684Z,29536
2023-02-13T14:00:39.191Z,22000
2023-02-13T14:02:19.742Z,30728
2023-02-13T14:04:00.160Z,26936
2023-02-13T14:05:40.651Z,22256
2023-02-13T14:07:21.134Z,23496
2023-02-13T14:09:01.506Z,29408
2023-02-13T14:10:41.984Z,23624
2023-02-13T14:12:22.468Z,18280
2023-02-13T14:14:02.926Z,22000
2023-02-13T14:15:43.454Z,15264
2023-02-13T14:17:23.958Z,26400
2023-02-13T14:19:04.475Z,28912
2023-02-13T14:20:44.969Z,14432
2023-02-13T14:22:25.437Z,21904
2023-02-13T14:24:05.814Z,25864
2023-02-13T14:25:47.041Z,18592
2023-02-13T14:25:47.071Z,18592
2023-02-13T14:25:47.085Z,18592
2023-02-13T14:27:26.623Z,21760
2023-02-13T14:29:07.107Z,18120
2023-02-13T14:30:47.753Z,23472
2023-02-13T14:32:28.167Z,20704
2023-02-13T14:34:08.701Z,12328
2023-02-13T14:35:49.132Z,15800
2023-02-13T14:37:29.658Z,11592
2023-02-13T14:39:10.100Z,24552
2023-02-13T14:40:50.665Z,22776
2023-02-13T14:42:31.087Z,8331
2023-02-13T14:44:11.607Z,13604
2023-02-13T14:45:52.161Z,15256
2023-02-13T14:47:32.537Z,13168
2023-02-13T14:49:12.973Z,14640
2023-02-13T14:50:53.479Z,13354
2023-02-13T14:52:34.016Z,12810
2023-02-13T14:54:14.504Z,12935
2023-02-13T14:55:55.032Z,12711
2023-02-13T14:57:35.586Z,14968
2023-02-13T14:59:16.090Z,13686
2023-02-13T15:00:56.911Z,12928
2023-02-13T15:02:37.039Z,11488
2023-02-13T15:04:17.549Z,15195
2023-02-13T15:05:57.845Z,13060
2023-02-13T15:07:38.293Z,11030
2023-02-13T15:09:18.756Z,8737
2023-02-13T15:10:59.598Z,11276
2023-02-13T15:12:39.696Z,9093
2023-02-13T15:14:20.183Z,9135
2023-02-13T15:16:00.736Z,9321
2023-02-13T15:17:41.254Z,10270
2023-02-13T15:19:21.674Z,9504
2023-02-13T15:21:02.134Z,9219
2023-02-13T15:22:42.657Z,8388
2023-02-13T15:24:23.091Z,9234
2023-02-13T15:26:03.490Z,7189
2023-02-13T15:27:43.968Z,10041
2023-02-13T15:29:31.101Z,7253
2023-02-13T15:31:04.926Z,7692
2023-02-13T15:32:45.294Z,7284
2023-02-13T15:34:25.839Z,6545
2023-02-13T15:36:06.350Z,5999
2023-02-13T15:37:46.844Z,4312
2023-02-13T15:39:27.346Z,4118
2023-02-13T15:41:07.834Z,4023
2023-02-13T15:42:48.277Z,3928
2023-02-13T15:44:28.780Z,3826
2023-02-13T15:46:09.121Z,3726
2023-02-13T15:47:49.505Z,3619
2023-02-13T15:49:29.928Z,3514
2023-02-13T15:51:10.434Z,3410
2023-02-13T15:52:50.953Z,3307
2023-02-13T15:54:31.370Z,3198
2023-02-13T15:56:11.942Z,3084
2023-02-13T15:57:52.402Z,2964
2023-02-13T15:59:32.858Z,2844
2023-02-13T16:01:13.418Z,2723
2023-02-13T16:02:53.986Z,2597
2023-02-13T16:04:34.390Z,2476
2023-02-13T16:06:14.849Z,2354
2023-02-13T16:07:55.366Z,2228
2023-02-13T16:09:35.818Z,2082
2023-02-13T16:11:16.173Z,1899
2023-02-13T16:12:56.532Z,1756
2023-02-13T16:14:37.067Z,1612
2023-02-13T16:16:17.554Z,1461
2023-02-13T16:17:57.955Z,1329
2023-02-13T16:19:38.403Z,1217
2023-02-13T16:21:18.908Z,1111
2023-02-13T16:22:59.417Z,1010
2023-02-13T16:24:39.868Z,914
2023-02-13T16:26:23.395Z,822
2023-02-13T16:28:00.772Z,735
2023-02-13T16:29:41.242Z,653
2023-02-13T16:31:21.841Z,578
2023-02-13T16:33:02.162Z,505
2023-02-13T16:34:42.589Z,439
2023-02-13T16:36:23.007Z,377
2023-02-13T16:38:03.575Z,321
2023-02-13T16:39:43.922Z,269
2023-02-13T16:41:24.436Z,224
2023-02-13T16:43:04.893Z,184
2023-02-13T16:44:45.270Z,148
2023-02-13T16:46:25.788Z,119
2023-02-13T16:48:06.272Z,94
2023-02-13T16:49:46.740Z,73
2023-02-13T16:51:27.262Z,56
2023-02-13T16:53:07.732Z,42
2023-02-13T16:54:48.203Z,31
2023-02-13T16:56:28.694Z,23
2023-02-13T16:58:09.202Z,16
2023-02-13T16:59:49.686Z,12
2023-02-13T17:01:30.214Z,9
2023-02-13T17:03:10.625Z,7
2023-02-13T17:04:51.180Z,5
2023-02-13T17:06:31.608Z,3
2023-02-13T17:08:12.068Z,3
2023-02-13T17:09:52.609Z,2
2023-02-13T17:11:33.089Z,1
2023-02-13T17:13:13.707Z,1
2023-02-13T17:14:54.165Z,1
2023-02-13T17:16:34.774Z,1
2023-02-13T17:18:15.152Z,0
2023-02-13T17:20:01.575Z,0
2023-02-13T17:21:46.596Z,1
2023-02-13T17:23:27.009Z,0
2023-02-13T17:25:07.424Z,0
2023-02-13T17:26:47.898Z,0
2023-02-13T17:28:28.328Z,0
2023-02-13T17:30:08.906Z,0
2023-02-13T17:31:49.432Z,0
2023-02-13T17:33:29.662Z,0
2023-02-13T17:35:10.088Z,0
2023-02-13T17:36:53.493Z,0
2023-02-13T17:38:30.716Z,0
2023-02-13T17:40:11.021Z,0
2023-02-13T17:41:51.354Z,0
2023-02-13T17:43:31.884Z,0
2023-02-13T17:45:12.310Z,0
2023-02-13T17:46:52.808Z,0
2023-02-13T17:48:33.289Z,0
2023-02-13T17:50:13.762Z,0
2023-02-13T17:51:54.262Z,0
2023-02-13T17:53:34.758Z,0
2023-02-13T17:55:15.223Z,0
2023-02-13T17:56:55.710Z,0
2023-02-13T17:58:36.222Z,0
2023-02-13T18:00:16.609Z,0
2023-02-13T18:01:56.929Z,0
2023-02-13T18:03:37.441Z,0
2023-02-13T18:05:17.967Z,0
2023-02-13T18:06:58.340Z,0
2023-02-13T18:08:38.782Z,0
2023-02-13T18:10:19.299Z,0
2023-02-13T18:12:05.344Z,0
2023-02-13T18:13:40.304Z,0
2023-02-13T18:15:20.806Z,0
2023-02-13T18:17:01.289Z,0
2023-02-13T18:18:41.793Z,0
2023-02-13T18:20:22.214Z,0
2023-02-13T18:22:02.666Z,0
2023-02-13T18:23:43.113Z,0
2023-02-13T18:25:23.576Z,0
2023-02-13T18:27:03.947Z,0
2023-02-13T18:28:44.270Z,0
2023-02-13T18:30:24.640Z,0
2023-02-13T18:32:05.175Z,0
2023-02-13T18:33:45.576Z,0
2023-02-13T18:35:25.967Z,0
2023-02-13T18:37:06.493Z,0
2023-02-13T18:38:47.035Z,0
2023-02-13T18:40:27.509Z,0
2023-02-13T18:42:07.780Z,0
2023-02-13T18:43:48.384Z,0
2023-02-13T18:45:28.865Z,0
2023-02-13T18:47:09.289Z,0
2023-02-13T18:48:49.753Z,0
2023-02-13T18:50:30.189Z,0
2023-02-13T18:52:18.461Z,0
2023-02-13T18:53:58.996Z,0
2023-02-13T18:55:39.542Z,0
2023-02-13T18:57:19.882Z,0
2023-02-13T18:59:03.508Z,0
2023-02-13T19:00:40.975Z,0
2023-02-13T19:02:21.458Z,0
2023-02-13T19:04:01.928Z,0
2023-02-13T19:05:42.521Z,0
2023-02-13T19:07:22.929Z,0
2023-02-13T19:09:03.274Z,0
2023-02-13T19:10:43.776Z,0
2023-02-13T19:12:24.208Z,0
2023-02-13T19:14:04.631Z,0
2023-02-13T19:15:45.138Z,0
2023-02-13T19:17:25.595Z,0
2023-02-13T19:19:06.040Z,0
2023-02-13T19:20:46.487Z,0
2023-02-13T19:22:26.973Z,0
2023-02-13T19:24:07.621Z,0
2023-02-13T19:25:48.030Z,0
2023-02-13T19:27:28.505Z,0
2023-02-13T19:29:08.997Z,0
2023-02-13T19:30:49.490Z,0
2023-02-13T19:32:29.940Z,0
2023-02-13T19:34:10.389Z,0
2023-02-13T19:35:50.864Z,0
2023-02-13T19:37:43.037Z,0
2023-02-13T19:39:11.782Z,0
2023-02-13T19:40:52.065Z,0
2023-02-13T19:42:32.492Z,0
2023-02-13T19:44:12.878Z,0
2023-02-13T19:45:53.426Z,0
2023-02-13T19:47:36.925Z,0
2023-02-13T19:49:14.145Z,0
2023-02-13T19:50:54.443Z,0
2023-02-13T19:52:34.769Z,0
2023-02-13T19:54:15.072Z,0
2023-02-13T19:55:55.353Z,0
2023-02-13T19:57:35.682Z,0
2023-02-13T19:59:15.972Z,0
2023-02-13T20:00:56.642Z,0
2023-02-13T20:02:39.870Z,0
2023-02-13T20:04:17.096Z,0
2023-02-13T20:05:57.606Z,0
2023-02-13T20:07:38.135Z,0
2023-02-13T20:09:18.561Z,0
2023-02-13T20:10:59.494Z,0
2023-02-13T20:12:42.630Z,0
2023-02-13T20:14:20.068Z,0
2023-02-13T20:16:00.681Z,0
2023-02-13T20:17:41.069Z,0
2023-02-13T20:19:21.810Z,0
2023-02-13T20:21:02.066Z,0
2023-02-13T20:22:42.495Z,0
2023-02-13T20:24:22.967Z,0
2023-02-13T20:26:03.378Z,0
2023-02-13T20:27:43.872Z,0
2023-02-13T20:29:31.378Z,0
2023-02-13T20:31:05.079Z,0
2023-02-13T20:32:45.291Z,0
2023-02-13T20:34:25.896Z,0
2023-02-13T20:36:06.188Z,0
2023-02-13T20:37:46.694Z,0
2023-02-13T20:39:27.214Z,0
2023-02-13T20:41:07.526Z,0
2023-02-13T20:42:47.858Z,0
2023-02-13T20:44:28.176Z,0
2023-02-13T20:46:08.575Z,0
2023-02-13T20:47:48.891Z,0
2023-02-13T20:49:29.335Z,0
2023-02-13T20:51:09.838Z,0
2023-02-13T20:52:50.304Z,0
2023-02-13T20:54:30.847Z,0
2023-02-13T20:56:11.230Z,0
2023-02-13T20:57:51.815Z,0
2023-02-13T20:59:32.232Z,0
2023-02-13T21:01:12.785Z,0
2023-02-13T21:02:53.223Z,0
2023-02-13T21:04:33.772Z,0
2023-02-13T21:06:14.095Z,0
2023-02-13T21:07:54.372Z,0
2023-02-13T21:09:34.684Z,0
2023-02-13T21:11:15.069Z,0
2023-02-13T21:12:55.284Z,0
2023-02-13T21:14:35.665Z,0
2023-02-13T21:16:15.932Z,0
2023-02-13T21:17:56.174Z,0
2023-02-13T21:19:36.516Z,0
2023-02-13T21:21:16.808Z,0
2023-02-13T21:22:57.085Z,0
2023-02-13T21:24:37.411Z,0
2023-02-13T21:26:17.724Z,0
2023-02-13T21:27:57.984Z,0
2023-02-13T21:29:38.300Z,0
2023-02-13T21:31:18.703Z,0
2023-02-13T21:32:58.918Z,0
2023-02-13T21:34:39.208Z,0
2023-02-13T21:36:19.491Z,0
2023-02-13T21:37:59.813Z,0
2023-02-13T21:39:40.110Z,0
2023-02-13T21:41:20.391Z,0
2023-02-13T21:43:00.705Z,0
2023-02-13T21:44:41.062Z,0
2023-02-13T21:46:21.391Z,0
2023-02-13T21:48:01.710Z,0
2023-02-13T21:49:41.924Z,0
2023-02-13T21:51:22.218Z,0
2023-02-13T21:53:02.580Z,0
2023-02-13T21:54:42.974Z,0
2023-02-13T21:56:23.127Z,0
2023-02-13T21:58:03.439Z,0
2023-02-13T21:59:43.747Z,0
2023-02-13T22:01:26.751Z,0
2023-02-13T22:03:04.453Z,0
2023-02-13T22:04:44.648Z,0
2023-02-13T22:06:24.940Z,0
2023-02-13T22:08:05.245Z,0
2023-02-13T22:09:45.710Z,0
2023-02-13T22:11:26.225Z,0
2023-02-13T22:13:06.766Z,0
2023-02-13T22:14:47.261Z,0
2023-02-13T22:16:27.826Z,0
2023-02-13T22:18:08.119Z,0
2023-02-13T22:19:48.613Z,0
2023-02-13T22:21:29.104Z,0
2023-02-13T22:23:09.544Z,0
2023-02-13T22:24:50.080Z,0
2023-02-13T22:26:30.508Z,0
2023-02-13T22:28:10.821Z,0
2023-02-13T22:29:51.161Z,0
2023-02-13T22:31:31.553Z,0
2023-02-13T22:33:11.728Z,0
2023-02-13T22:36:32.588Z,0
2023-02-13T22:38:13.008Z,0
2023-02-13T22:39:53.513Z,0
2023-02-13T22:41:34.057Z,0
2023-02-13T22:43:14.577Z,0
2023-02-13T22:44:55.149Z,0
2023-02-13T22:46:35.758Z,0
2023-02-13T22:48:16.135Z,0
2023-02-13T22:49:56.678Z,0
2023-02-13T22:51:37.048Z,0
2023-02-13T22:53:17.359Z,0
2023-02-13T22:54:57.659Z,0
2023-02-13T22:56:37.977Z,0
2023-02-13T22:58:18.252Z,0
2023-02-13T22:59:58.535Z,0
2023-02-13T23:01:38.880Z,0
2023-02-13T23:03:19.266Z,0
2023-02-13T23:04:59.461Z,0
2023-02-13T23:06:39.772Z,0
2023-02-13T23:08:20.059Z,0
2023-02-13T23:10:00.337Z,0
2023-02-13T23:11:40.790Z,0
2023-02-13T23:13:21.220Z,0
2023-02-13T23:15:01.640Z,0
2023-02-13T23:16:42.164Z,0
2023-02-13T23:18:22.714Z,0
2023-02-13T23:20:03.200Z,0
2023-02-13T23:21:43.729Z,0
2023-02-13T23:23:24.180Z,0
2023-02-13T23:25:04.648Z,0